No particular awareness of the weather is required.    There are no Weather-warnings


Meteo18 Weather Cam more information Meteo18 Weather Cam


Thunder radar more information blitzortung!


Rain radar more information rain snow radar


Visit our other weather sites:

Template documentation
and downloads

And another site



Weather Underground History page Text

Daily Summary for August 15, 2017 Units:  Metric    English   Both
« Previous Day
Next Day »
Daily Weekly Monthly Yearly Custom
  High: Low: Average:
Temperature: 24.9 °C 17.9 °C 20.6 °C
Dew Point: 19.2 °C 15.4 °C 17.3 °C
Humidity: 92 % 62 % 82 %
Wind Speed: 33.8 km/h 0.0 km/h 4.3 km/h
Wind Gust: 45.1 km/h - -
Wind:- - SW
Pressure: 1021.2 hPa 1015.5 hPa -
Precipitation: 4.1 mm    
Historical Graphs
 
 
Tabular Data for August 15, 2017
Time Temperature Dew Point Pressure Wind Wind Speed Wind Gust Humidity Rainfall Rate (Hourly)
00:02 20.1 °C 15.5 °C 1015.8 hPa Calm     75 % 0.0 mm
00:07 20.2 °C 15.6 °C 1015.8 hPa Calm     75 % 0.0 mm
00:12 20.2 °C 15.6 °C 1015.8 hPa Calm     75 % 0.0 mm
00:17 20.2 °C 15.8 °C 1015.8 hPa Calm     76 % 0.0 mm
00:22 19.9 °C 15.7 °C 1015.8 hPa Calm     77 % 0.0 mm
00:32 19.9 °C 15.7 °C 1015.8 hPa Calm     77 % 0.0 mm
00:42 19.8 °C 15.7 °C 1015.8 hPa Calm     77 % 0.0 mm
00:52 19.7 °C 15.6 °C 1015.5 hPa Calm     77 % 0.0 mm
00:57 19.7 °C 15.6 °C 1015.5 hPa Calm     77 % 0.0 mm
01:02 19.6 °C 15.5 °C 1015.5 hPa Calm     77 % 0.0 mm
01:12 19.4 °C 15.5 °C 1015.5 hPa Calm     78 % 0.0 mm
01:17 19.4 °C 15.5 °C 1015.5 hPa Calm     78 % 0.0 mm
01:22 19.3 °C 15.6 °C 1015.5 hPa Calm     79 % 0.0 mm
01:32 19.3 °C 15.4 °C 1015.5 hPa Calm     78 % 0.0 mm
01:37 19.3 °C 15.4 °C 1015.5 hPa Calm     78 % 0.0 mm
01:42 19.2 °C 15.5 °C 1015.5 hPa Calm     79 % 0.0 mm
01:47 19.1 °C 15.6 °C 1015.5 hPa Calm     80 % 0.0 mm
01:52 19.0 °C 15.5 °C 1015.5 hPa Calm     80 % 0.0 mm
01:57 19.0 °C 15.5 °C 1015.5 hPa Calm     80 % 0.0 mm
02:02 19.0 °C 15.5 °C 1015.5 hPa Calm     80 % 0.0 mm
02:07 19.1 °C 15.6 °C 1015.8 hPa Calm     80 % 0.0 mm
02:12 19.0 °C 15.5 °C 1015.8 hPa Calm     80 % 0.0 mm
02:17 18.9 °C 15.6 °C 1015.8 hPa Calm     81 % 0.0 mm
02:22 18.9 °C 15.4 °C 1015.8 hPa Calm     80 % 0.0 mm
02:27 19.2 °C 15.7 °C 1015.8 hPa Calm     80 % 0.0 mm
02:32 19.2 °C 15.7 °C 1015.8 hPa Calm     80 % 0.0 mm
02:37 19.2 °C 15.5 °C 1015.8 hPa Calm     79 % 0.0 mm
02:42 19.2 °C 15.5 °C 1015.8 hPa Calm     79 % 0.0 mm
02:47 19.3 °C 15.6 °C 1015.8 hPa Calm     79 % 0.0 mm
02:52 19.3 °C 15.6 °C 1015.8 hPa Calm     79 % 0.0 mm
02:57 19.3 °C 15.8 °C 1015.8 hPa Calm     80 % 0.0 mm
03:02 19.3 °C 15.6 °C 1015.8 hPa Calm     79 % 0.0 mm
03:12 19.4 °C 15.7 °C 1015.8 hPa Calm     79 % 0.0 mm
03:17 19.3 °C 15.6 °C 1015.8 hPa Calm     79 % 0.0 mm
03:22 19.4 °C 15.7 °C 1015.8 hPa Calm     79 % 0.0 mm
03:32 20.1 °C 15.7 °C 1015.8 hPa Calm     76 % 0.0 mm
03:37 20.2 °C 15.8 °C 1015.8 hPa SSW 3.2 km/h   76 % 0.0 mm
03:42 20.0 °C 15.8 °C 1015.5 hPa SW 1.6 km/h 6.4 km/h 77 % 0.0 mm
03:52 19.8 °C 15.9 °C 1015.8 hPa Calm   4.8 km/h 78 % 0.0 mm
03:57 19.7 °C 16.0 °C 1015.8 hPa Calm   4.8 km/h 79 % 0.0 mm
04:02 19.5 °C 16.0 °C 1015.8 hPa SSE 1.6 km/h 4.8 km/h 80 % 0.0 mm
04:07 19.4 °C 15.9 °C 1015.8 hPa SSW 1.6 km/h 4.8 km/h 80 % 0.0 mm
04:12 19.4 °C 15.9 °C 1015.8 hPa Calm   4.8 km/h 80 % 0.0 mm
04:17 19.4 °C 15.9 °C 1015.8 hPa Calm   4.8 km/h 80 % 0.0 mm
04:22 19.4 °C 15.9 °C 1015.8 hPa Calm   4.8 km/h 80 % 0.0 mm
04:32 19.3 °C 16.0 °C 1015.5 hPa Calm   3.2 km/h 81 % 0.0 mm
04:37 19.1 °C 16.0 °C 1015.8 hPa Calm   3.2 km/h 82 % 0.0 mm
04:42 19.0 °C 15.9 °C 1015.5 hPa Calm     82 % 0.0 mm
04:47 18.9 °C 15.9 °C 1015.8 hPa Calm     83 % 0.0 mm
04:52 18.9 °C 15.9 °C 1015.8 hPa Calm     83 % 0.0 mm
04:57 18.9 °C 15.9 °C 1015.8 hPa Calm     83 % 0.0 mm
05:02 18.9 °C 15.9 °C 1015.8 hPa SSW 3.2 km/h   83 % 0.0 mm
05:17 18.7 °C 16.1 °C 1015.8 hPa SW 1.6 km/h 6.4 km/h 85 % 0.0 mm
05:22 18.7 °C 16.3 °C 1015.8 hPa SW 6.4 km/h 6.4 km/h 86 % 0.0 mm
05:32 18.9 °C 16.5 °C 1015.8 hPa SW 3.2 km/h 16.1 km/h 86 % 1.8 mm
05:37 18.8 °C 16.6 °C 1015.8 hPa SSW 3.2 km/h 16.1 km/h 87 % 2.5 mm
05:42 18.6 °C 16.6 °C 1015.5 hPa SSW 1.6 km/h 16.1 km/h 88 % 2.5 mm
05:47 18.4 °C 16.6 °C 1015.8 hPa South 1.6 km/h 8.0 km/h 89 % 2.5 mm
05:52 18.4 °C 16.6 °C 1015.8 hPa Calm   4.8 km/h 89 % 2.5 mm
06:02 18.3 °C 16.6 °C 1015.8 hPa Calm   4.8 km/h 90 % 2.5 mm
06:12 18.4 °C 16.6 °C 1015.8 hPa SSW 1.6 km/h 3.2 km/h 89 % 2.5 mm
06:17 18.3 °C 16.5 °C 1015.8 hPa SW 4.8 km/h 4.8 km/h 89 % 2.5 mm
06:22 18.4 °C 16.7 °C 1016.1 hPa SW 3.2 km/h 4.8 km/h 90 % 2.5 mm
06:27 18.3 °C 16.6 °C 1015.8 hPa Calm   4.8 km/h 90 % 2.5 mm
06:32 18.3 °C 16.6 °C 1015.8 hPa Calm   6.4 km/h 90 % 0.0 mm
06:42 18.3 °C 16.6 °C 1015.8 hPa Calm   4.8 km/h 90 % 0.0 mm
06:47 18.1 °C 16.6 °C 1015.8 hPa Calm   4.8 km/h 91 % 0.0 mm
06:52 18.1 °C 16.6 °C 1016.1 hPa Calm   4.8 km/h 91 % 0.0 mm
06:57 18.1 °C 16.6 °C 1016.1 hPa Calm   4.8 km/h 91 % 0.0 mm
07:02 18.1 °C 16.6 °C 1016.1 hPa Calm   1.6 km/h 91 % 0.0 mm
07:07 18.1 °C 16.4 °C 1016.1 hPa Calm   1.6 km/h 90 % 0.0 mm
07:12 18.1 °C 16.4 °C 1016.1 hPa Calm   1.6 km/h 90 % 0.0 mm
07:17 18.1 °C 16.4 °C 1016.1 hPa Calm   1.6 km/h 90 % 0.0 mm
07:27 18.2 °C 16.5 °C 1016.5 hPa Calm   1.6 km/h 90 % 0.0 mm
07:32 18.3 °C 16.6 °C 1016.5 hPa Calm     90 % 0.0 mm
07:37 18.2 °C 16.5 °C 1016.5 hPa Calm     90 % 0.0 mm
07:42 18.2 °C 16.7 °C 1016.5 hPa Calm     91 % 0.0 mm
07:47 18.0 °C 16.5 °C 1016.8 hPa Calm   1.6 km/h 91 % 0.0 mm
07:57 17.9 °C 16.4 °C 1016.8 hPa WSW 1.6 km/h 1.6 km/h 91 % 0.0 mm
08:02 18.0 °C 16.5 °C 1016.8 hPa SSW 1.6 km/h 1.6 km/h 91 % 0.0 mm
08:07 18.2 °C 16.7 °C 1016.8 hPa Calm   3.2 km/h 91 % 0.0 mm
08:12 18.3 °C 16.6 °C 1016.8 hPa Calm   3.2 km/h 90 % 0.0 mm
08:17 18.4 °C 16.7 °C 1016.8 hPa SSW 1.6 km/h 4.8 km/h 90 % 0.0 mm
08:22 18.6 °C 16.9 °C 1016.8 hPa SW 1.6 km/h 4.8 km/h 90 % 0.0 mm
08:32 18.9 °C 16.9 °C 1016.8 hPa SW 6.4 km/h 6.4 km/h 88 % 0.0 mm
08:37 19.1 °C 16.9 °C 1017.2 hPa SSW 4.8 km/h 8.0 km/h 87 % 0.0 mm
08:42 19.1 °C 16.9 °C 1017.2 hPa SW 8.0 km/h 9.7 km/h 87 % 0.0 mm
08:52 19.2 °C 17.2 °C 1017.2 hPa SSW 4.8 km/h 9.7 km/h 88 % 0.0 mm
08:57 19.3 °C 17.1 °C 1017.2 hPa SSW 4.8 km/h 9.7 km/h 87 % 0.0 mm
09:07 19.9 °C 17.5 °C 1017.5 hPa SW 6.4 km/h 9.7 km/h 86 % 0.0 mm
09:17 20.8 °C 18.2 °C 1017.2 hPa SW 4.8 km/h 11.3 km/h 85 % 0.0 mm
09:22 21.4 °C 18.0 °C 1017.2 hPa SSW 12.9 km/h 12.9 km/h 81 % 0.0 mm
09:27 21.9 °C 17.9 °C 1017.2 hPa SSW 11.3 km/h 17.7 km/h 78 % 0.0 mm
09:32 22.1 °C 17.9 °C 1017.2 hPa WSW 8.0 km/h 19.3 km/h 77 % 0.0 mm
09:37 22.1 °C 17.9 °C 1017.2 hPa SW 11.3 km/h 19.3 km/h 77 % 0.0 mm
09:42 22.1 °C 17.9 °C 1017.5 hPa SW 6.4 km/h 17.7 km/h 77 % 0.0 mm
09:47 22.1 °C 17.5 °C 1017.2 hPa SW 8.0 km/h 16.1 km/h 75 % 0.0 mm
09:52 22.2 °C 17.6 °C 1017.2 hPa WSW 14.5 km/h 16.1 km/h 75 % 0.0 mm
10:02 22.6 °C 17.3 °C 1017.2 hPa SW 11.3 km/h 25.7 km/h 72 % 0.0 mm
10:12 22.6 °C 17.1 °C 1017.5 hPa WSW 6.4 km/h 27.4 km/h 71 % 0.0 mm
10:17 22.6 °C 17.1 °C 1017.5 hPa West 8.0 km/h 27.4 km/h 71 % 0.0 mm
10:22 22.6 °C 17.3 °C 1017.8 hPa SSW 4.8 km/h 24.1 km/h 72 % 0.0 mm
10:32 22.8 °C 17.5 °C 1017.8 hPa SW 8.0 km/h 17.7 km/h 72 % 0.0 mm
10:37 22.9 °C 17.6 °C 1017.8 hPa SW 9.7 km/h 17.7 km/h 72 % 0.3 mm
10:42 23.0 °C 17.7 °C 1017.8 hPa SSW 8.0 km/h 19.3 km/h 72 % 0.3 mm
10:47 23.2 °C 17.2 °C 1017.8 hPa West 9.7 km/h 24.1 km/h 69 % 0.3 mm
10:52 23.5 °C 17.5 °C 1017.8 hPa SW 9.7 km/h 24.1 km/h 69 % 0.3 mm
10:57 23.8 °C 17.8 °C 1017.8 hPa WSW 12.9 km/h 24.1 km/h 69 % 0.3 mm
11:02 23.9 °C 17.9 °C 1017.8 hPa West 4.8 km/h 20.9 km/h 69 % 0.3 mm
11:12 24.2 °C 17.4 °C 1017.8 hPa SSW 8.0 km/h 19.3 km/h 66 % 0.3 mm
11:17 24.4 °C 18.1 °C 1017.8 hPa West 1.6 km/h 17.7 km/h 68 % 0.3 mm
11:22 24.6 °C 17.6 °C 1017.8 hPa SW 12.9 km/h 17.7 km/h 65 % 0.3 mm
11:32 24.9 °C 17.1 °C 1017.8 hPa WSW 12.9 km/h 22.5 km/h 62 % 0.0 mm
11:42 24.8 °C 17.0 °C 1017.8 hPa West 8.0 km/h 24.1 km/h 62 % 0.0 mm
11:47 24.7 °C 17.4 °C 1018.2 hPa SW 9.7 km/h 20.9 km/h 64 % 0.0 mm
11:52 24.7 °C 17.2 °C 1018.2 hPa WSW 11.3 km/h 17.7 km/h 63 % 0.0 mm
11:57 24.5 °C 17.0 °C 1018.5 hPa WSW 16.1 km/h 17.7 km/h 63 % 0.0 mm
12:02 24.3 °C 16.8 °C 1018.8 hPa West 9.7 km/h 16.1 km/h 63 % 0.0 mm
12:07 24.1 °C 16.6 °C 1019.2 hPa SW 11.3 km/h 24.1 km/h 63 % 0.0 mm
12:12 24.0 °C 16.8 °C 1019.5 hPa West 24.1 km/h 24.1 km/h 64 % 0.0 mm
12:17 23.8 °C 16.3 °C 1019.9 hPa WSW 16.1 km/h 33.8 km/h 63 % 0.0 mm
12:22 23.6 °C 16.1 °C 1019.9 hPa West 20.9 km/h 37.0 km/h 63 % 0.0 mm
12:27 23.2 °C 15.8 °C 1019.9 hPa WNW 19.3 km/h 37.0 km/h 63 % 0.0 mm
12:32 22.7 °C 15.5 °C 1019.9 hPa West 33.8 km/h 37.0 km/h 64 % 0.0 mm
12:42 20.8 °C 16.2 °C 1019.9 hPa West 11.3 km/h 45.1 km/h 75 % 0.0 mm
12:47 20.1 °C 16.3 °C 1019.5 hPa West 4.8 km/h 45.1 km/h 79 % 0.0 mm
12:52 19.7 °C 16.2 °C 1019.5 hPa WNW 11.3 km/h 35.4 km/h 80 % 0.5 mm
12:57 19.5 °C 16.2 °C 1019.5 hPa WSW 6.4 km/h 35.4 km/h 81 % 0.5 mm
13:02 19.2 °C 16.1 °C 1019.5 hPa SSW 1.6 km/h 14.5 km/h 82 % 0.5 mm
13:12 18.9 °C 16.5 °C 1019.5 hPa Calm   11.3 km/h 86 % 0.8 mm
13:17 18.8 °C 16.6 °C 1019.2 hPa SSE 1.6 km/h 11.3 km/h 87 % 1.0 mm
13:22 18.7 °C 16.7 °C 1019.2 hPa Calm   11.3 km/h 88 % 1.0 mm
13:32 18.6 °C 16.6 °C 1018.8 hPa West 3.2 km/h 3.2 km/h 88 % 1.3 mm
13:42 18.8 °C 17.1 °C 1018.5 hPa SE 3.2 km/h 8.0 km/h 90 % 1.3 mm
13:52 19.2 °C 17.7 °C 1017.8 hPa Calm   6.4 km/h 91 % 0.5 mm
13:57 19.4 °C 17.9 °C 1018.2 hPa Calm   6.4 km/h 91 % 0.5 mm
14:02 19.4 °C 17.5 °C 1018.2 hPa SSW 1.6 km/h 4.8 km/h 89 % 0.5 mm
14:07 19.4 °C 17.4 °C 1018.5 hPa West 1.6 km/h 4.8 km/h 88 % 0.5 mm
14:12 19.6 °C 17.7 °C 1018.2 hPa Calm   4.8 km/h 89 % 0.3 mm
14:17 19.7 °C 17.7 °C 1018.5 hPa Calm   4.8 km/h 88 % 0.3 mm
14:22 19.8 °C 17.8 °C 1018.8 hPa Calm   4.8 km/h 88 % 0.3 mm
14:27 19.9 °C 17.9 °C 1018.8 hPa SW 1.6 km/h 4.8 km/h 88 % 0.0 mm
14:32 20.1 °C 18.0 °C 1018.8 hPa SSW 1.6 km/h 6.4 km/h 88 % 0.0 mm
14:42 20.3 °C 17.9 °C 1019.5 hPa SW 4.8 km/h 9.7 km/h 86 % 0.0 mm
14:47 20.3 °C 17.7 °C 1019.5 hPa WSW 8.0 km/h 11.3 km/h 85 % 0.0 mm
14:52 20.3 °C 17.9 °C 1019.9 hPa West 8.0 km/h 12.9 km/h 86 % 0.0 mm
14:57 20.3 °C 18.1 °C 1019.9 hPa SW 12.9 km/h 19.3 km/h 87 % 0.0 mm
15:02 20.3 °C 17.9 °C 1019.9 hPa WSW 9.7 km/h 19.3 km/h 86 % 0.0 mm
15:07 20.3 °C 18.1 °C 1019.9 hPa West 3.2 km/h 19.3 km/h 87 % 0.0 mm
15:12 20.4 °C 18.2 °C 1020.2 hPa WSW 9.7 km/h 19.3 km/h 87 % 0.0 mm
15:17 20.4 °C 18.2 °C 1020.2 hPa SW 4.8 km/h 19.3 km/h 87 % 0.0 mm
15:22 20.6 °C 18.4 °C 1020.2 hPa SW 16.1 km/h 19.3 km/h 87 % 0.0 mm
15:27 20.7 °C 18.5 °C 1020.2 hPa WSW 4.8 km/h 17.7 km/h 87 % 0.0 mm
15:32 20.7 °C 18.5 °C 1020.2 hPa WSW 4.8 km/h 16.1 km/h 87 % 0.0 mm
15:37 20.8 °C 18.4 °C 1020.2 hPa WSW 11.3 km/h 16.1 km/h 86 % 0.0 mm
15:42 20.9 °C 18.5 °C 1019.9 hPa West 8.0 km/h 14.5 km/h 86 % 0.0 mm
15:47 21.2 °C 18.6 °C 1019.9 hPa SSW 8.0 km/h 14.5 km/h 85 % 0.0 mm
15:52 21.4 °C 18.8 °C 1019.9 hPa WSW 3.2 km/h 16.1 km/h 85 % 0.0 mm
15:57 21.8 °C 19.2 °C 1020.2 hPa SW 14.5 km/h 19.3 km/h 85 % 0.0 mm
16:02 22.0 °C 19.2 °C 1019.9 hPa West 8.0 km/h 19.3 km/h 84 % 0.0 mm
16:12 22.3 °C 18.5 °C 1019.9 hPa SW 11.3 km/h 20.9 km/h 79 % 0.0 mm
16:17 22.4 °C 18.8 °C 1019.9 hPa WSW 6.4 km/h 20.9 km/h 80 % 0.0 mm
16:22 22.4 °C 18.8 °C 1019.9 hPa WSW 11.3 km/h 20.9 km/h 80 % 0.0 mm
16:27 22.4 °C 18.6 °C 1019.9 hPa SSW 8.0 km/h 19.3 km/h 79 % 0.0 mm
16:32 22.4 °C 18.4 °C 1019.9 hPa SSW 6.4 km/h 19.3 km/h 78 % 0.0 mm
16:42 22.4 °C 18.0 °C 1019.9 hPa SW 11.3 km/h 19.3 km/h 76 % 0.0 mm
16:47 22.5 °C 18.1 °C 1019.5 hPa SW 8.0 km/h 19.3 km/h 76 % 0.0 mm
16:52 22.5 °C 18.3 °C 1019.5 hPa South 8.0 km/h 19.3 km/h 77 % 0.0 mm
16:57 22.6 °C 18.4 °C 1019.5 hPa SSW 17.7 km/h 17.7 km/h 77 % 0.0 mm
17:02 22.6 °C 18.2 °C 1019.5 hPa SW 8.0 km/h 17.7 km/h 76 % 0.0 mm
17:12 22.5 °C 18.3 °C 1019.9 hPa WSW 12.9 km/h 19.3 km/h 77 % 0.0 mm
17:17 22.4 °C 18.0 °C 1019.9 hPa SW 12.9 km/h 19.3 km/h 76 % 0.0 mm
17:22 22.4 °C 18.2 °C 1019.9 hPa SSW 6.4 km/h 19.3 km/h 77 % 0.0 mm
17:27 22.4 °C 18.4 °C 1019.9 hPa SSW 4.8 km/h 19.3 km/h 78 % 0.0 mm
17:32 22.4 °C 18.4 °C 1019.9 hPa SW 14.5 km/h 19.3 km/h 78 % 0.0 mm
17:37 22.4 °C 18.4 °C 1019.9 hPa WSW 12.9 km/h 14.5 km/h 78 % 0.0 mm
17:42 22.3 °C 18.3 °C 1019.9 hPa SW 6.4 km/h 14.5 km/h 78 % 0.0 mm
17:47 22.3 °C 18.3 °C 1019.9 hPa SSW 4.8 km/h 14.5 km/h 78 % 0.0 mm
17:52 22.2 °C 18.4 °C 1019.9 hPa WSW 4.8 km/h 14.5 km/h 79 % 0.0 mm
17:57 22.2 °C 18.4 °C 1019.9 hPa SW 6.4 km/h 14.5 km/h 79 % 0.0 mm
18:02 22.2 °C 18.6 °C 1019.9 hPa SSW 8.0 km/h 14.5 km/h 80 % 0.0 mm
18:12 22.1 °C 18.5 °C 1019.9 hPa SW 8.0 km/h 12.9 km/h 80 % 0.0 mm
18:17 22.2 °C 18.8 °C 1019.9 hPa WSW 4.8 km/h 12.9 km/h 81 % 0.0 mm
18:22 22.2 °C 18.6 °C 1019.9 hPa WSW 3.2 km/h 12.9 km/h 80 % 0.0 mm
18:32 22.2 °C 18.6 °C 1019.5 hPa SSW 3.2 km/h 11.3 km/h 80 % 0.0 mm
18:42 22.1 °C 18.9 °C 1019.5 hPa SW 11.3 km/h 11.3 km/h 82 % 0.0 mm
18:52 21.9 °C 18.9 °C 1019.5 hPa SW 4.8 km/h 14.5 km/h 83 % 0.0 mm
19:02 21.9 °C 18.9 °C 1019.2 hPa SSE 3.2 km/h 12.9 km/h 83 % 0.0 mm
19:12 21.8 °C 18.8 °C 1018.8 hPa SW 3.2 km/h 8.0 km/h 83 % 0.0 mm
19:17 21.8 °C 18.8 °C 1018.8 hPa SW 1.6 km/h 8.0 km/h 83 % 0.0 mm
19:22 21.8 °C 18.6 °C 1018.8 hPa SW 6.4 km/h 8.0 km/h 82 % 0.0 mm
19:32 22.1 °C 18.7 °C 1018.8 hPa SW 4.8 km/h 8.0 km/h 81 % 0.0 mm
19:37 22.3 °C 18.9 °C 1019.2 hPa SW 8.0 km/h 11.3 km/h 81 % 0.0 mm
19:42 22.3 °C 18.9 °C 1019.2 hPa SW 4.8 km/h 11.3 km/h 81 % 0.0 mm
19:47 22.3 °C 18.9 °C 1019.5 hPa SW 11.3 km/h 11.3 km/h 81 % 0.0 mm
19:52 22.3 °C 18.7 °C 1019.5 hPa SW 4.8 km/h 16.1 km/h 80 % 0.0 mm
19:57 22.2 °C 18.6 °C 1019.5 hPa South 4.8 km/h 16.1 km/h 80 % 0.0 mm
20:02 22.1 °C 18.7 °C 1019.5 hPa SW 1.6 km/h 16.1 km/h 81 % 0.0 mm
20:12 21.9 °C 18.7 °C 1019.5 hPa SW 4.8 km/h 11.3 km/h 82 % 0.0 mm
20:17 21.9 °C 18.7 °C 1019.5 hPa SW 8.0 km/h 11.3 km/h 82 % 0.0 mm
20:27 21.8 °C 18.6 °C 1019.9 hPa WSW 3.2 km/h 11.3 km/h 82 % 0.0 mm
20:32 21.8 °C 18.6 °C 1019.9 hPa Calm   11.3 km/h 82 % 0.0 mm
20:37 21.8 °C 18.6 °C 1019.9 hPa SE 1.6 km/h 11.3 km/h 82 % 0.0 mm
20:42 21.7 °C 18.5 °C 1019.9 hPa WSW 3.2 km/h 4.8 km/h 82 % 0.0 mm
20:47 21.7 °C 18.5 °C 1019.9 hPa Calm   4.8 km/h 82 % 0.0 mm
20:57 21.5 °C 18.5 °C 1019.9 hPa Calm   4.8 km/h 83 % 0.0 mm
21:02 21.4 °C 18.6 °C 1019.9 hPa Calm   3.2 km/h 84 % 0.0 mm
21:07 21.2 °C 18.6 °C 1019.9 hPa SE 1.6 km/h 3.2 km/h 85 % 0.0 mm
21:12 21.1 °C 18.5 °C 1019.9 hPa Calm   3.2 km/h 85 % 0.0 mm
21:17 20.9 °C 18.5 °C 1019.9 hPa Calm   3.2 km/h 86 % 0.0 mm
21:22 20.8 °C 18.4 °C 1019.9 hPa Calm   3.2 km/h 86 % 0.0 mm
21:27 20.7 °C 18.3 °C 1019.9 hPa Calm   3.2 km/h 86 % 0.0 mm
21:32 20.5 °C 18.1 °C 1019.9 hPa Calm   3.2 km/h 86 % 0.0 mm
21:37 20.4 °C 18.2 °C 1019.9 hPa Calm   1.6 km/h 87 % 0.0 mm
21:47 20.2 °C 18.1 °C 1020.2 hPa Calm   1.6 km/h 88 % 0.0 mm
21:52 20.1 °C 18.2 °C 1020.5 hPa Calm   1.6 km/h 89 % 0.0 mm
21:57 20.0 °C 18.1 °C 1020.5 hPa Calm   1.6 km/h 89 % 0.0 mm
22:02 19.9 °C 18.2 °C 1020.5 hPa Calm     90 % 0.0 mm
22:07 19.9 °C 18.2 °C 1020.9 hPa Calm     90 % 0.0 mm
22:12 19.9 °C 18.2 °C 1020.9 hPa Calm     90 % 0.0 mm
22:17 20.0 °C 18.3 °C 1021.2 hPa Calm     90 % 0.0 mm
22:22 20.1 °C 18.4 °C 1020.9 hPa Calm     90 % 0.0 mm
22:32 19.8 °C 18.1 °C 1020.9 hPa Calm     90 % 0.0 mm
22:37 19.7 °C 18.0 °C 1020.9 hPa Calm     90 % 0.0 mm
22:42 19.7 °C 18.2 °C 1020.9 hPa Calm     91 % 0.0 mm
22:52 19.8 °C 18.5 °C 1020.9 hPa SW 3.2 km/h 4.8 km/h 92 % 0.0 mm
22:57 20.0 °C 18.5 °C 1021.2 hPa SSW 3.2 km/h 4.8 km/h 91 % 0.0 mm
23:02 20.1 °C 18.6 °C 1020.9 hPa SSW 4.8 km/h 4.8 km/h 91 % 0.0 mm
23:12 20.1 °C 18.4 °C 1020.9 hPa SW 4.8 km/h 6.4 km/h 90 % 0.0 mm
23:17 20.2 °C 18.5 °C 1020.9 hPa SW 3.2 km/h 6.4 km/h 90 % 0.0 mm
23:22 20.2 °C 18.5 °C 1020.9 hPa SW 4.8 km/h 8.0 km/h 90 % 0.0 mm
23:32 20.2 °C 18.5 °C 1020.9 hPa WSW 6.4 km/h 9.7 km/h 90 % 0.0 mm
23:37 20.3 °C 18.6 °C 1020.9 hPa SW 9.7 km/h 9.7 km/h 90 % 0.0 mm
23:42 20.3 °C 18.6 °C 1020.9 hPa SW 6.4 km/h 11.3 km/h 90 % 0.0 mm
23:47 20.3 °C 18.6 °C 1020.9 hPa WSW 6.4 km/h 11.3 km/h 90 % 0.0 mm
23:57 20.3 °C 18.6 °C 1020.9 hPa SW 8.0 km/h 12.9 km/h 90 % 0.0 mm
Meteo18
Compliments of Weather Underground - 4 mb

Script developed by  Jim McMurry - jmcmurry@mwt.net Adapted for the template by  Wim van der Kuil - Leuven-Template.eu

You find our weather info also at:

European Weather Network

Weather Underground

Equipment we use:

Weather-station
Davis Vue

Weather-program
Meteohub

Weather-server
Raspberry PI 2 B+

Provider
1 and 1

Davis Vue

Meteohub

Raspberry PI 2 B+

1 and 1